sensor_id;sensor_type;location;lat;lon;timestamp;pressure;altitude;pressure_sealevel;temperature;humidity
74327;BME280;62745;51.060;13.786;2023-01-08T00:00:04;99858.88;;;6.02;84.79
74327;BME280;62745;51.060;13.786;2023-01-08T00:02:30;99858.38;;;5.98;84.61
74327;BME280;62745;51.060;13.786;2023-01-08T00:04:55;99853.25;;;5.97;84.78
74327;BME280;62745;51.060;13.786;2023-01-08T00:07:20;99858.69;;;6.03;84.49
74327;BME280;62745;51.060;13.786;2023-01-08T00:09:46;99846.59;;;6.01;84.65
74327;BME280;62745;51.060;13.786;2023-01-08T00:12:14;99847.78;;;6.07;84.97
74327;BME280;62745;51.060;13.786;2023-01-08T00:14:39;99851.91;;;6.01;85.24
74327;BME280;62745;51.060;13.786;2023-01-08T00:17:04;99852.19;;;6.14;84.23
74327;BME280;62745;51.060;13.786;2023-01-08T00:19:29;99855.53;;;6.08;84.46
74327;BME280;62745;51.060;13.786;2023-01-08T00:21:55;99858.19;;;6.08;84.74
74327;BME280;62745;51.060;13.786;2023-01-08T00:24:20;99851.72;;;6.11;84.30
74327;BME280;62745;51.060;13.786;2023-01-08T00:26:45;99846.25;;;6.12;84.33
74327;BME280;62745;51.060;13.786;2023-01-08T00:29:11;99849.25;;;6.09;84.53
74327;BME280;62745;51.060;13.786;2023-01-08T00:31:36;99847.09;;;6.04;84.41
74327;BME280;62745;51.060;13.786;2023-01-08T00:34:01;99848.91;;;6.04;84.63
74327;BME280;62745;51.060;13.786;2023-01-08T00:36:26;99860.19;;;6.06;84.05
74327;BME280;62745;51.060;13.786;2023-01-08T00:38:52;99837.88;;;5.92;84.85
74327;BME280;62745;51.060;13.786;2023-01-08T00:41:17;99841.84;;;5.88;85.21
74327;BME280;62745;51.060;13.786;2023-01-08T00:43:42;99842.34;;;5.92;85.50
74327;BME280;62745;51.060;13.786;2023-01-08T00:46:08;99830.88;;;5.99;84.62
74327;BME280;62745;51.060;13.786;2023-01-08T00:48:33;99820.50;;;5.90;84.78
74327;BME280;62745;51.060;13.786;2023-01-08T00:51:03;99817.06;;;6.12;83.89
74327;BME280;62745;51.060;13.786;2023-01-08T00:53:29;99815.13;;;6.06;84.25
74327;BME280;62745;51.060;13.786;2023-01-08T00:56:05;99821.25;;;6.07;84.19
74327;BME280;62745;51.060;13.786;2023-01-08T00:58:31;99810.03;;;5.96;84.42
74327;BME280;62745;51.060;13.786;2023-01-08T01:00:57;99815.97;;;5.98;84.08
74327;BME280;62745;51.060;13.786;2023-01-08T01:03:22;99801.25;;;5.96;84.34
74327;BME280;62745;51.060;13.786;2023-01-08T01:05:48;99804.50;;;6.06;83.33
74327;BME280;62745;51.060;13.786;2023-01-08T01:08:14;99792.28;;;5.97;83.79
74327;BME280;62745;51.060;13.786;2023-01-08T01:10:39;99800.03;;;6.07;83.48
74327;BME280;62745;51.060;13.786;2023-01-08T01:13:04;99803.38;;;6.00;83.41
74327;BME280;62745;51.060;13.786;2023-01-08T01:15:30;99791.00;;;5.93;83.53
74327;BME280;62745;51.060;13.786;2023-01-08T01:17:55;99779.66;;;6.07;83.25
74327;BME280;62745;51.060;13.786;2023-01-08T01:20:21;99782.84;;;5.94;83.43
74327;BME280;62745;51.060;13.786;2023-01-08T01:22:48;99781.72;;;5.89;83.87
74327;BME280;62745;51.060;13.786;2023-01-08T01:25:13;99779.03;;;5.97;83.51
74327;BME280;62745;51.060;13.786;2023-01-08T01:27:39;99771.09;;;5.89;83.69
74327;BME280;62745;51.060;13.786;2023-01-08T01:30:04;99775.56;;;5.96;83.84
74327;BME280;62745;51.060;13.786;2023-01-08T01:32:30;99783.22;;;5.91;83.52
74327;BME280;62745;51.060;13.786;2023-01-08T01:34:55;99790.81;;;5.86;84.08
74327;BME280;62745;51.060;13.786;2023-01-08T01:37:20;99786.50;;;5.93;83.92
74327;BME280;62745;51.060;13.786;2023-01-08T01:39:46;99792.75;;;6.00;83.30
74327;BME280;62745;51.060;13.786;2023-01-08T01:42:16;99802.88;;;6.05;83.63
74327;BME280;62745;51.060;13.786;2023-01-08T01:45:03;99808.06;;;5.90;84.25
74327;BME280;62745;51.060;13.786;2023-01-08T01:47:33;99788.16;;;5.86;84.26
74327;BME280;62745;51.060;13.786;2023-01-08T01:50:28;99789.34;;;5.84;84.20
74327;BME280;62745;51.060;13.786;2023-01-08T01:53:01;99790.34;;;5.91;84.26
74327;BME280;62745;51.060;13.786;2023-01-08T01:55:29;99792.31;;;5.89;83.92
74327;BME280;62745;51.060;13.786;2023-01-08T01:58:05;99779.19;;;5.87;84.12
74327;BME280;62745;51.060;13.786;2023-01-08T02:00:33;99775.25;;;5.83;84.12
74327;BME280;62745;51.060;13.786;2023-01-08T02:02:59;99782.69;;;5.88;83.39
74327;BME280;62745;51.060;13.786;2023-01-08T02:05:28;99788.69;;;5.82;83.89
74327;BME280;62745;51.060;13.786;2023-01-08T02:08:02;99782.09;;;5.78;84.20
74327;BME280;62745;51.060;13.786;2023-01-08T02:10:47;99781.72;;;5.81;84.14
74327;BME280;62745;51.060;13.786;2023-01-08T02:13:36;99774.44;;;5.83;83.75
74327;BME280;62745;51.060;13.786;2023-01-08T02:16:17;99766.31;;;5.84;83.84
74327;BME280;62745;51.060;13.786;2023-01-08T02:19:02;99754.28;;;5.73;84.19
74327;BME280;62745;51.060;13.786;2023-01-08T02:21:37;99750.44;;;5.76;83.95
74327;BME280;62745;51.060;13.786;2023-01-08T02:24:40;99750.41;;;5.84;83.44
74327;BME280;62745;51.060;13.786;2023-01-08T02:27:02;99736.84;;;5.79;83.75
74327;BME280;62745;51.060;13.786;2023-01-08T02:29:28;99732.31;;;5.88;83.48
74327;BME280;62745;51.060;13.786;2023-01-08T02:31:56;99731.03;;;5.84;83.58
74327;BME280;62745;51.060;13.786;2023-01-08T02:34:22;99735.31;;;5.93;83.47
74327;BME280;62745;51.060;13.786;2023-01-08T02:36:49;99731.56;;;5.79;83.61
74327;BME280;62745;51.060;13.786;2023-01-08T02:42:23;99739.63;;;5.86;83.83
74327;BME280;62745;51.060;13.786;2023-01-08T02:45:04;99745.56;;;5.88;83.78
74327;BME280;62745;51.060;13.786;2023-01-08T02:47:38;99739.31;;;5.81;84.36
74327;BME280;62745;51.060;13.786;2023-01-08T02:52:41;99741.97;;;5.81;84.29
74327;BME280;62745;51.060;13.786;2023-01-08T02:55:09;99755.69;;;5.84;84.28
74327;BME280;62745;51.060;13.786;2023-01-08T02:57:36;99753.88;;;5.85;84.42
74327;BME280;62745;51.060;13.786;2023-01-08T03:00:03;99745.44;;;5.81;84.48
74327;BME280;62745;51.060;13.786;2023-01-08T03:02:31;99745.50;;;5.73;84.75
74327;BME280;62745;51.060;13.786;2023-01-08T03:05:02;99743.19;;;5.70;85.17
74327;BME280;62745;51.060;13.786;2023-01-08T03:07:29;99747.97;;;5.74;85.16
74327;BME280;62745;51.060;13.786;2023-01-08T03:09:55;99744.28;;;5.84;85.02
74327;BME280;62745;51.060;13.786;2023-01-08T03:12:43;99728.00;;;5.87;84.39
74327;BME280;62745;51.060;13.786;2023-01-08T03:15:12;99738.50;;;5.80;84.65
74327;BME280;62745;51.060;13.786;2023-01-08T03:17:45;99741.16;;;5.80;84.68
74327;BME280;62745;51.060;13.786;2023-01-08T03:20:15;99729.72;;;5.80;84.98
74327;BME280;62745;51.060;13.786;2023-01-08T03:22:44;99734.03;;;5.81;85.06
74327;BME280;62745;51.060;13.786;2023-01-08T03:25:12;99736.38;;;5.76;85.05
74327;BME280;62745;51.060;13.786;2023-01-08T03:27:41;99722.81;;;5.70;85.41
74327;BME280;62745;51.060;13.786;2023-01-08T03:30:09;99732.94;;;5.67;85.51
74327;BME280;62745;51.060;13.786;2023-01-08T03:32:38;99731.16;;;5.59;85.49
74327;BME280;62745;51.060;13.786;2023-01-08T03:35:08;99735.63;;;5.59;85.63
74327;BME280;62745;51.060;13.786;2023-01-08T03:37:38;99724.03;;;5.60;85.66
74327;BME280;62745;51.060;13.786;2023-01-08T03:40:26;99726.69;;;5.60;86.27
74327;BME280;62745;51.060;13.786;2023-01-08T03:42:53;99713.47;;;5.52;86.09
74327;BME280;62745;51.060;13.786;2023-01-08T03:45:21;99719.25;;;5.55;86.15
74327;BME280;62745;51.060;13.786;2023-01-08T03:47:47;99715.28;;;5.51;86.32
74327;BME280;62745;51.060;13.786;2023-01-08T03:50:18;99712.50;;;5.44;86.71
74327;BME280;62745;51.060;13.786;2023-01-08T03:52:45;99704.38;;;5.46;86.94
74327;BME280;62745;51.060;13.786;2023-01-08T03:55:10;99697.63;;;5.43;86.65
74327;BME280;62745;51.060;13.786;2023-01-08T03:57:35;99699.38;;;5.59;86.42
74327;BME280;62745;51.060;13.786;2023-01-08T04:00:01;99691.94;;;5.55;86.53
74327;BME280;62745;51.060;13.786;2023-01-08T04:02:26;99688.06;;;5.65;85.92
74327;BME280;62745;51.060;13.786;2023-01-08T04:04:51;99687.72;;;5.68;85.51
74327;BME280;62745;51.060;13.786;2023-01-08T04:07:17;99683.88;;;5.71;85.66
74327;BME280;62745;51.060;13.786;2023-01-08T04:09:42;99678.56;;;5.71;85.49
74327;BME280;62745;51.060;13.786;2023-01-08T04:12:07;99668.22;;;5.84;85.20
74327;BME280;62745;51.060;13.786;2023-01-08T04:14:32;99668.56;;;5.89;84.97
74327;BME280;62745;51.060;13.786;2023-01-08T04:16:57;99660.84;;;6.02;84.24
74327;BME280;62745;51.060;13.786;2023-01-08T04:19:23;99652.84;;;6.11;84.04
74327;BME280;62745;51.060;13.786;2023-01-08T04:21:52;99652.47;;;6.14;83.68
74327;BME280;62745;51.060;13.786;2023-01-08T04:24:17;99639.25;;;6.28;83.59
74327;BME280;62745;51.060;13.786;2023-01-08T04:26:43;99649.47;;;6.17;83.77
74327;BME280;62745;51.060;13.786;2023-01-08T04:29:08;99645.72;;;6.11;83.94
74327;BME280;62745;51.060;13.786;2023-01-08T04:31:33;99654.50;;;6.12;84.04
74327;BME280;62745;51.060;13.786;2023-01-08T04:33:59;99668.22;;;6.15;84.27
74327;BME280;62745;51.060;13.786;2023-01-08T04:36:24;99668.56;;;6.12;83.77
74327;BME280;62745;51.060;13.786;2023-01-08T04:38:49;99675.25;;;6.08;84.03
74327;BME280;62745;51.060;13.786;2023-01-08T04:41:14;99668.63;;;6.04;84.29
74327;BME280;62745;51.060;13.786;2023-01-08T04:43:42;99675.41;;;6.07;83.94
74327;BME280;62745;51.060;13.786;2023-01-08T04:46:07;99670.56;;;6.10;84.08
74327;BME280;62745;51.060;13.786;2023-01-08T04:48:33;99674.22;;;6.09;84.19
74327;BME280;62745;51.060;13.786;2023-01-08T04:50:59;99670.44;;;6.03;84.36
74327;BME280;62745;51.060;13.786;2023-01-08T04:53:26;99666.22;;;5.94;85.06
74327;BME280;62745;51.060;13.786;2023-01-08T04:55:51;99669.69;;;5.95;85.00
74327;BME280;62745;51.060;13.786;2023-01-08T04:58:16;99664.75;;;5.92;85.25
74327;BME280;62745;51.060;13.786;2023-01-08T05:00:42;99663.31;;;6.04;85.13
74327;BME280;62745;51.060;13.786;2023-01-08T05:03:07;99667.97;;;6.02;84.99
74327;BME280;62745;51.060;13.786;2023-01-08T05:05:33;99665.47;;;6.09;84.74
74327;BME280;62745;51.060;13.786;2023-01-08T05:07:58;99665.09;;;6.12;84.41
74327;BME280;62745;51.060;13.786;2023-01-08T05:10:23;99664.63;;;6.08;84.26
74327;BME280;62745;51.060;13.786;2023-01-08T05:12:49;99662.25;;;6.13;84.56
74327;BME280;62745;51.060;13.786;2023-01-08T05:15:14;99663.28;;;6.12;84.82
74327;BME280;62745;51.060;13.786;2023-01-08T05:17:39;99655.66;;;6.09;84.80
74327;BME280;62745;51.060;13.786;2023-01-08T05:20:05;99650.06;;;6.04;85.02
74327;BME280;62745;51.060;13.786;2023-01-08T05:22:30;99650.56;;;6.08;84.95
74327;BME280;62745;51.060;13.786;2023-01-08T05:24:56;99636.28;;;6.09;85.01
74327;BME280;62745;51.060;13.786;2023-01-08T05:27:21;99636.53;;;5.99;85.24
74327;BME280;62745;51.060;13.786;2023-01-08T05:29:46;99634.69;;;5.99;85.52
74327;BME280;62745;51.060;13.786;2023-01-08T05:32:16;99644.84;;;5.96;85.33
74327;BME280;62745;51.060;13.786;2023-01-08T05:34:42;99654.91;;;6.00;85.21
74327;BME280;62745;51.060;13.786;2023-01-08T05:37:07;99663.75;;;5.93;85.73
74327;BME280;62745;51.060;13.786;2023-01-08T05:39:32;99652.31;;;5.92;85.71
74327;BME280;62745;51.060;13.786;2023-01-08T05:41:57;99638.72;;;5.87;85.61
74327;BME280;62745;51.060;13.786;2023-01-08T05:44:23;99653.34;;;5.83;86.29
74327;BME280;62745;51.060;13.786;2023-01-08T05:46:48;99639.78;;;5.78;86.37
74327;BME280;62745;51.060;13.786;2023-01-08T05:49:13;99636.31;;;5.78;86.76
74327;BME280;62745;51.060;13.786;2023-01-08T05:51:39;99633.19;;;5.74;86.53
74327;BME280;62745;51.060;13.786;2023-01-08T05:54:04;99638.34;;;5.67;86.88
74327;BME280;62745;51.060;13.786;2023-01-08T05:56:29;99625.81;;;5.61;87.08
74327;BME280;62745;51.060;13.786;2023-01-08T05:58:54;99615.75;;;5.57;87.16
74327;BME280;62745;51.060;13.786;2023-01-08T06:01:20;99628.84;;;5.58;87.42
74327;BME280;62745;51.060;13.786;2023-01-08T06:03:45;99632.31;;;5.59;87.19
74327;BME280;62745;51.060;13.786;2023-01-08T06:06:11;99626.00;;;5.60;87.04
74327;BME280;62745;51.060;13.786;2023-01-08T06:08:37;99615.22;;;5.61;86.95
74327;BME280;62745;51.060;13.786;2023-01-08T06:11:04;99618.34;;;5.65;86.70
74327;BME280;62745;51.060;13.786;2023-01-08T06:13:30;99614.94;;;5.56;87.01
74327;BME280;62745;51.060;13.786;2023-01-08T06:16:00;99610.66;;;5.55;87.31
74327;BME280;62745;51.060;13.786;2023-01-08T06:18:26;99606.66;;;5.51;87.42
74327;BME280;62745;51.060;13.786;2023-01-08T06:20:52;99627.69;;;5.53;86.71
74327;BME280;62745;51.060;13.786;2023-01-08T06:23:17;99617.81;;;5.47;87.36
74327;BME280;62745;51.060;13.786;2023-01-08T06:25:42;99634.97;;;5.51;86.92
74327;BME280;62745;51.060;13.786;2023-01-08T06:28:07;99625.75;;;5.47;87.36
74327;BME280;62745;51.060;13.786;2023-01-08T06:30:33;99623.75;;;5.49;86.67
74327;BME280;62745;51.060;13.786;2023-01-08T06:32:59;99626.09;;;5.43;87.25
74327;BME280;62745;51.060;13.786;2023-01-08T06:35:25;99627.63;;;5.38;86.83
74327;BME280;62745;51.060;13.786;2023-01-08T06:37:50;99637.72;;;5.34;87.20
74327;BME280;62745;51.060;13.786;2023-01-08T06:40:16;99626.84;;;5.29;87.41
74327;BME280;62745;51.060;13.786;2023-01-08T06:42:41;99633.97;;;5.29;87.62
74327;BME280;62745;51.060;13.786;2023-01-08T06:45:08;99635.97;;;5.27;87.64
74327;BME280;62745;51.060;13.786;2023-01-08T06:47:33;99633.66;;;5.24;87.79
74327;BME280;62745;51.060;13.786;2023-01-08T06:49:59;99637.13;;;5.24;87.55
74327;BME280;62745;51.060;13.786;2023-01-08T06:52:24;99645.91;;;5.25;87.71
74327;BME280;62745;51.060;13.786;2023-01-08T06:54:49;99649.66;;;5.30;87.63
74327;BME280;62745;51.060;13.786;2023-01-08T06:57:15;99646.50;;;5.35;86.95
74327;BME280;62745;51.060;13.786;2023-01-08T06:59:40;99641.81;;;5.45;87.13
74327;BME280;62745;51.060;13.786;2023-01-08T07:02:05;99652.06;;;5.48;86.37
74327;BME280;62745;51.060;13.786;2023-01-08T07:04:31;99653.03;;;5.55;86.47
74327;BME280;62745;51.060;13.786;2023-01-08T07:06:56;99658.16;;;5.57;86.67
74327;BME280;62745;51.060;13.786;2023-01-08T07:09:21;99641.91;;;5.60;86.36
74327;BME280;62745;51.060;13.786;2023-01-08T07:11:47;99649.03;;;5.59;86.01
74327;BME280;62745;51.060;13.786;2023-01-08T07:14:13;99651.50;;;5.61;86.17
74327;BME280;62745;51.060;13.786;2023-01-08T07:16:38;99632.47;;;5.57;85.97
74327;BME280;62745;51.060;13.786;2023-01-08T07:19:03;99658.06;;;5.73;85.89
74327;BME280;62745;51.060;13.786;2023-01-08T07:21:29;99659.06;;;5.72;86.18
74327;BME280;62745;51.060;13.786;2023-01-08T07:23:55;99658.22;;;5.71;85.80
74327;BME280;62745;51.060;13.786;2023-01-08T07:26:20;99650.09;;;5.73;86.01
74327;BME280;62745;51.060;13.786;2023-01-08T07:28:45;99653.16;;;5.85;85.49
74327;BME280;62745;51.060;13.786;2023-01-08T07:31:10;99649.16;;;5.89;85.53
74327;BME280;62745;51.060;13.786;2023-01-08T07:33:36;99651.50;;;5.84;85.27
74327;BME280;62745;51.060;13.786;2023-01-08T07:36:01;99642.38;;;5.86;85.17
74327;BME280;62745;51.060;13.786;2023-01-08T07:38:27;99645.56;;;5.90;85.15
74327;BME280;62745;51.060;13.786;2023-01-08T07:40:52;99647.03;;;5.84;85.22
74327;BME280;62745;51.060;13.786;2023-01-08T07:43:17;99642.34;;;5.94;84.84
74327;BME280;62745;51.060;13.786;2023-01-08T07:45:43;99633.19;;;6.05;84.35
74327;BME280;62745;51.060;13.786;2023-01-08T07:48:08;99652.06;;;6.02;84.72
74327;BME280;62745;51.060;13.786;2023-01-08T07:50:36;99629.94;;;5.87;84.81
74327;BME280;62745;51.060;13.786;2023-01-08T07:53:01;99626.63;;;5.93;84.88
74327;BME280;62745;51.060;13.786;2023-01-08T07:55:28;99629.09;;;5.94;84.83
74327;BME280;62745;51.060;13.786;2023-01-08T07:57:53;99627.97;;;5.89;84.69
74327;BME280;62745;51.060;13.786;2023-01-08T08:00:19;99627.09;;;5.96;84.47
74327;BME280;62745;51.060;13.786;2023-01-08T08:02:44;99619.59;;;6.00;84.26
74327;BME280;62745;51.060;13.786;2023-01-08T08:05:09;99631.34;;;6.06;84.30
74327;BME280;62745;51.060;13.786;2023-01-08T08:07:35;99632.16;;;6.06;84.25
74327;BME280;62745;51.060;13.786;2023-01-08T08:10:01;99621.56;;;6.06;84.39
74327;BME280;62745;51.060;13.786;2023-01-08T08:12:27;99635.09;;;6.11;83.94
74327;BME280;62745;51.060;13.786;2023-01-08T08:14:52;99627.16;;;6.11;83.68
74327;BME280;62745;51.060;13.786;2023-01-08T08:17:17;99626.59;;;6.16;83.73
74327;BME280;62745;51.060;13.786;2023-01-08T08:19:43;99633.00;;;6.21;83.84
74327;BME280;62745;51.060;13.786;2023-01-08T08:22:10;99626.09;;;6.35;82.98
74327;BME280;62745;51.060;13.786;2023-01-08T08:24:36;99612.00;;;6.34;82.66
74327;BME280;62745;51.060;13.786;2023-01-08T08:27:01;99612.00;;;6.34;82.67
74327;BME280;62745;51.060;13.786;2023-01-08T08:29:26;99612.66;;;6.37;82.22
74327;BME280;62745;51.060;13.786;2023-01-08T08:31:52;99613.31;;;6.39;82.53
74327;BME280;62745;51.060;13.786;2023-01-08T08:34:17;99605.00;;;6.42;82.41
74327;BME280;62745;51.060;13.786;2023-01-08T08:36:44;99618.25;;;6.42;82.85
74327;BME280;62745;51.060;13.786;2023-01-08T08:39:09;99617.59;;;6.54;82.28
74327;BME280;62745;51.060;13.786;2023-01-08T08:41:34;99602.44;;;6.63;81.75
74327;BME280;62745;51.060;13.786;2023-01-08T08:44:00;99604.53;;;6.82;80.91
74327;BME280;62745;51.060;13.786;2023-01-08T08:46:25;99587.34;;;6.93;80.54
74327;BME280;62745;51.060;13.786;2023-01-08T08:48:50;99589.34;;;7.06;79.72
74327;BME280;62745;51.060;13.786;2023-01-08T08:51:15;99572.47;;;7.13;79.22
74327;BME280;62745;51.060;13.786;2023-01-08T08:53:41;99568.19;;;7.34;78.70
74327;BME280;62745;51.060;13.786;2023-01-08T08:56:06;99565.72;;;7.32;78.46
74327;BME280;62745;51.060;13.786;2023-01-08T08:58:32;99577.06;;;7.41;78.64
74327;BME280;62745;51.060;13.786;2023-01-08T09:01:01;99588.88;;;7.38;78.68
74327;BME280;62745;51.060;13.786;2023-01-08T09:03:28;99572.31;;;7.36;77.99
74327;BME280;62745;51.060;13.786;2023-01-08T09:05:53;99570.47;;;7.37;77.89
74327;BME280;62745;51.060;13.786;2023-01-08T09:08:18;99575.97;;;7.35;78.26
74327;BME280;62745;51.060;13.786;2023-01-08T09:10:44;99571.47;;;7.36;78.40
74327;BME280;62745;51.060;13.786;2023-01-08T09:13:09;99577.50;;;7.44;77.82
74327;BME280;62745;51.060;13.786;2023-01-08T09:15:36;99571.66;;;7.34;78.14
74327;BME280;62745;51.060;13.786;2023-01-08T09:18:01;99564.66;;;7.27;78.21
74327;BME280;62745;51.060;13.786;2023-01-08T09:20:27;99568.19;;;7.34;78.26
74327;BME280;62745;51.060;13.786;2023-01-08T09:22:53;99559.16;;;7.28;78.38
74327;BME280;62745;51.060;13.786;2023-01-08T09:25:18;99557.50;;;7.27;78.36
74327;BME280;62745;51.060;13.786;2023-01-08T09:27:44;99548.81;;;7.18;78.77
74327;BME280;62745;51.060;13.786;2023-01-08T09:30:09;99544.94;;;7.21;78.89
74327;BME280;62745;51.060;13.786;2023-01-08T09:32:35;99536.88;;;7.29;78.48
74327;BME280;62745;51.060;13.786;2023-01-08T09:35:01;99539.72;;;7.28;78.26
74327;BME280;62745;51.060;13.786;2023-01-08T09:37:26;99531.22;;;7.17;79.15
74327;BME280;62745;51.060;13.786;2023-01-08T09:39:52;99544.59;;;7.24;79.16
74327;BME280;62745;51.060;13.786;2023-01-08T09:42:22;99540.94;;;7.25;78.32
74327;BME280;62745;51.060;13.786;2023-01-08T09:44:51;99540.09;;;7.24;78.75
74327;BME280;62745;51.060;13.786;2023-01-08T09:47:26;99540.56;;;7.28;78.79
74327;BME280;62745;51.060;13.786;2023-01-08T09:49:57;99540.34;;;7.30;78.16
74327;BME280;62745;51.060;13.786;2023-01-08T09:52:25;99537.66;;;7.23;78.85
74327;BME280;62745;51.060;13.786;2023-01-08T09:54:50;99546.44;;;7.23;78.74
74327;BME280;62745;51.060;13.786;2023-01-08T09:57:18;99549.25;;;7.22;78.57
74327;BME280;62745;51.060;13.786;2023-01-08T09:59:45;99549.44;;;7.20;78.54
74327;BME280;62745;51.060;13.786;2023-01-08T10:02:15;99537.94;;;7.13;78.89
74327;BME280;62745;51.060;13.786;2023-01-08T10:04:42;99538.91;;;7.27;78.59
74327;BME280;62745;51.060;13.786;2023-01-08T10:07:14;99536.25;;;7.27;78.45
74327;BME280;62745;51.060;13.786;2023-01-08T10:09:45;99542.00;;;7.31;78.31
74327;BME280;62745;51.060;13.786;2023-01-08T10:12:11;99538.97;;;7.34;78.37
74327;BME280;62745;51.060;13.786;2023-01-08T10:14:39;99544.09;;;7.35;78.75
74327;BME280;62745;51.060;13.786;2023-01-08T10:17:22;99541.25;;;7.37;78.06
74327;BME280;62745;51.060;13.786;2023-01-08T10:19:49;99538.38;;;7.38;77.78
74327;BME280;62745;51.060;13.786;2023-01-08T10:22:17;99532.34;;;7.44;78.15
74327;BME280;62745;51.060;13.786;2023-01-08T10:24:43;99538.84;;;7.42;77.72
74327;BME280;62745;51.060;13.786;2023-01-08T10:27:14;99537.91;;;7.49;77.95
74327;BME280;62745;51.060;13.786;2023-01-08T10:29:41;99530.38;;;7.53;77.63
74327;BME280;62745;51.060;13.786;2023-01-08T10:32:29;99533.03;;;7.53;77.68
74327;BME280;62745;51.060;13.786;2023-01-08T10:34:57;99526.78;;;7.61;77.25
74327;BME280;62745;51.060;13.786;2023-01-08T10:37:37;99512.06;;;7.65;77.30
74327;BME280;62745;51.060;13.786;2023-01-08T10:42:48;99505.91;;;7.58;76.89
74327;BME280;62745;51.060;13.786;2023-01-08T10:45:19;99511.69;;;7.68;76.63
74327;BME280;62745;51.060;13.786;2023-01-08T10:47:49;99503.63;;;7.82;76.24
74327;BME280;62745;51.060;13.786;2023-01-08T10:50:22;99498.72;;;7.79;75.63
74327;BME280;62745;51.060;13.786;2023-01-08T10:52:53;99493.97;;;7.75;75.69
74327;BME280;62745;51.060;13.786;2023-01-08T10:55:25;99490.97;;;7.84;75.55
74327;BME280;62745;51.060;13.786;2023-01-08T10:57:59;99475.84;;;7.85;75.60
74327;BME280;62745;51.060;13.786;2023-01-08T11:00:27;99479.75;;;7.89;75.05
74327;BME280;62745;51.060;13.786;2023-01-08T11:02:53;99470.50;;;7.85;74.95
74327;BME280;62745;51.060;13.786;2023-01-08T11:05:18;99468.38;;;8.02;74.85
74327;BME280;62745;51.060;13.786;2023-01-08T11:07:51;99476.78;;;8.05;74.41
74327;BME280;62745;51.060;13.786;2023-01-08T11:10:24;99464.88;;;7.95;74.74
74327;BME280;62745;51.060;13.786;2023-01-08T11:12:58;99465.19;;;8.13;74.46
74327;BME280;62745;51.060;13.786;2023-01-08T11:15:33;99466.41;;;8.10;73.96
74327;BME280;62745;51.060;13.786;2023-01-08T11:18:09;99461.66;;;8.06;73.67
74327;BME280;62745;51.060;13.786;2023-01-08T11:20:35;99464.47;;;7.98;74.01
74327;BME280;62745;51.060;13.786;2023-01-08T11:25:41;99466.72;;;7.94;73.93
74327;BME280;62745;51.060;13.786;2023-01-08T11:28:14;99455.06;;;7.95;73.36
74327;BME280;62745;51.060;13.786;2023-01-08T11:30:47;99451.66;;;7.80;73.96
74327;BME280;62745;51.060;13.786;2023-01-08T11:33:20;99473.81;;;7.87;74.04
74327;BME280;62745;51.060;13.786;2023-01-08T11:35:49;99471.34;;;7.85;74.24
74327;BME280;62745;51.060;13.786;2023-01-08T11:38:16;99476.66;;;7.85;74.30
74327;BME280;62745;51.060;13.786;2023-01-08T11:40:56;99467.44;;;7.81;74.70
74327;BME280;62745;51.060;13.786;2023-01-08T11:43:45;99463.31;;;7.79;74.33
74327;BME280;62745;51.060;13.786;2023-01-08T11:46:25;99458.97;;;7.71;74.62
74327;BME280;62745;51.060;13.786;2023-01-08T11:55:23;99428.13;;;7.49;75.71
74327;BME280;62745;51.060;13.786;2023-01-08T12:01:06;99421.16;;;7.48;76.06
74327;BME280;62745;51.060;13.786;2023-01-08T12:03:41;99423.69;;;7.56;75.87
74327;BME280;62745;51.060;13.786;2023-01-08T12:08:59;99403.00;;;7.51;75.81
74327;BME280;62745;51.060;13.786;2023-01-08T12:11:29;99408.38;;;7.58;75.71
74327;BME280;62745;51.060;13.786;2023-01-08T12:14:40;99420.28;;;7.69;75.24
74327;BME280;62745;51.060;13.786;2023-01-08T12:22:52;99406.88;;;7.77;75.18
74327;BME280;62745;51.060;13.786;2023-01-08T12:25:41;99412.63;;;7.80;75.11
74327;BME280;62745;51.060;13.786;2023-01-08T12:28:37;99408.84;;;7.68;74.97
74327;BME280;62745;51.060;13.786;2023-01-08T12:31:37;99405.22;;;7.76;75.42
74327;BME280;62745;51.060;13.786;2023-01-08T12:34:11;99392.50;;;7.71;75.22
74327;BME280;62745;51.060;13.786;2023-01-08T12:36:44;99404.91;;;7.58;75.54
74327;BME280;62745;51.060;13.786;2023-01-08T12:39:16;99411.56;;;7.47;75.56
74327;BME280;62745;51.060;13.786;2023-01-08T12:41:46;99403.38;;;7.48;76.63
74327;BME280;62745;51.060;13.786;2023-01-08T12:44:24;99414.59;;;7.44;nan
74327;BME280;62745;51.060;13.786;2023-01-08T12:46:52;99418.34;;;7.28;76.58
74327;BME280;62745;51.060;13.786;2023-01-08T12:49:24;99396.41;;;7.19;77.22
74327;BME280;62745;51.060;13.786;2023-01-08T12:52:11;99396.16;;;7.14;77.48
74327;BME280;62745;51.060;13.786;2023-01-08T12:55:02;99406.47;;;7.24;77.39
74327;BME280;62745;51.060;13.786;2023-01-08T12:57:33;99391.91;;;7.20;77.54
74327;BME280;62745;51.060;13.786;2023-01-08T13:00:08;99386.59;;;7.20;77.85
74327;BME280;62745;51.060;13.786;2023-01-08T13:02:59;99393.66;;;7.34;77.54
74327;BME280;62745;51.060;13.786;2023-01-08T13:05:34;99398.97;;;7.34;77.51
74327;BME280;62745;51.060;13.786;2023-01-08T13:08:05;99397.34;;;7.33;77.29
74327;BME280;62745;51.060;13.786;2023-01-08T13:10:38;99392.22;;;7.32;77.17
74327;BME280;62745;51.060;13.786;2023-01-08T13:13:24;99389.78;;;7.37;77.16
74327;BME280;62745;51.060;13.786;2023-01-08T13:15:50;99393.53;;;7.42;77.16
74327;BME280;62745;51.060;13.786;2023-01-08T13:18:18;99384.34;;;7.45;77.38
74327;BME280;62745;51.060;13.786;2023-01-08T13:20:55;99383.56;;;7.51;76.82
74327;BME280;62745;51.060;13.786;2023-01-08T13:23:24;99382.00;;;7.57;76.79
74327;BME280;62745;51.060;13.786;2023-01-08T13:25:51;99383.94;;;7.41;77.08
74327;BME280;62745;51.060;13.786;2023-01-08T13:28:28;99376.97;;;7.40;77.37
74327;BME280;62745;51.060;13.786;2023-01-08T13:30:53;99366.34;;;7.40;77.40
74327;BME280;62745;51.060;13.786;2023-01-08T13:38:44;99367.13;;;7.13;78.05
74327;BME280;62745;51.060;13.786;2023-01-08T13:44:00;99374.41;;;7.04;78.64